Terminal Aerodrome Forecast
Issued by NWS

Home | Current Version | Previous Version | Text Only | Print | Product List | Glossary On
Versions: 1 2 3 4 5 6 7 8 9 10 11 12 13 14 15 16
000
FTUS43 KDTX 061135
TAFMBS
TAF
KMBS 061135Z 0612/0712 07005KT 6SM BR SCT015 OVC120
      TEMPO 0612/0615 4SM -SHRA BR OVC015
     FM061900 15007KT P6SM BKN035
     FM070900 18005KT 2SM BR SKC=

USA.gov is the U.S. government's official web portal to all federal, state and local government web resources and services.